sensor_id;sensor_type;location;lat;lon;timestamp;P1;durP1;ratioP1;P2;durP2;ratioP2
2658;SDS011;1339;53.304;10.406;2023-05-07T00:02:23;11.02;;;9.88;;
2658;SDS011;1339;53.304;10.406;2023-05-07T00:04:50;12.60;;;11.30;;
2658;SDS011;1339;53.304;10.406;2023-05-07T00:07:17;11.63;;;10.55;;
2658;SDS011;1339;53.304;10.406;2023-05-07T00:09:46;11.30;;;10.20;;
2658;SDS011;1339;53.304;10.406;2023-05-07T00:12:13;9.15;;;8.25;;
2658;SDS011;1339;53.304;10.406;2023-05-07T00:14:40;10.43;;;9.43;;
2658;SDS011;1339;53.304;10.406;2023-05-07T00:17:07;9.88;;;8.90;;
2658;SDS011;1339;53.304;10.406;2023-05-07T00:19:34;9.73;;;8.82;;
2658;SDS011;1339;53.304;10.406;2023-05-07T00:22:01;9.05;;;8.05;;
2658;SDS011;1339;53.304;10.406;2023-05-07T00:24:28;8.55;;;7.85;;
2658;SDS011;1339;53.304;10.406;2023-05-07T00:26:56;9.18;;;8.27;;
2658;SDS011;1339;53.304;10.406;2023-05-07T00:29:23;8.70;;;7.78;;
2658;SDS011;1339;53.304;10.406;2023-05-07T00:31:50;7.82;;;7.10;;
2658;SDS011;1339;53.304;10.406;2023-05-07T00:34:19;8.95;;;8.15;;
2658;SDS011;1339;53.304;10.406;2023-05-07T00:36:46;8.77;;;7.88;;
2658;SDS011;1339;53.304;10.406;2023-05-07T00:39:13;8.02;;;7.28;;
2658;SDS011;1339;53.304;10.406;2023-05-07T00:41:40;9.30;;;8.48;;
2658;SDS011;1339;53.304;10.406;2023-05-07T00:44:08;8.38;;;7.57;;
2658;SDS011;1339;53.304;10.406;2023-05-07T00:46:35;8.13;;;7.32;;
2658;SDS011;1339;53.304;10.406;2023-05-07T00:49:02;8.02;;;7.22;;
2658;SDS011;1339;53.304;10.406;2023-05-07T00:51:30;9.80;;;8.80;;
2658;SDS011;1339;53.304;10.406;2023-05-07T00:53:57;9.00;;;8.05;;
2658;SDS011;1339;53.304;10.406;2023-05-07T00:56:23;8.40;;;7.57;;
2658;SDS011;1339;53.304;10.406;2023-05-07T00:58:51;7.82;;;7.13;;
2658;SDS011;1339;53.304;10.406;2023-05-07T01:01:19;9.52;;;8.65;;
2658;SDS011;1339;53.304;10.406;2023-05-07T01:03:46;8.77;;;8.07;;
2658;SDS011;1339;53.304;10.406;2023-05-07T01:06:13;8.60;;;7.72;;
2658;SDS011;1339;53.304;10.406;2023-05-07T01:08:42;9.10;;;7.68;;
2658;SDS011;1339;53.304;10.406;2023-05-07T01:11:09;8.55;;;7.85;;
2658;SDS011;1339;53.304;10.406;2023-05-07T01:13:36;7.65;;;6.95;;
2658;SDS011;1339;53.304;10.406;2023-05-07T01:16:04;9.00;;;8.10;;
2658;SDS011;1339;53.304;10.406;2023-05-07T01:18:32;7.97;;;7.35;;
2658;SDS011;1339;53.304;10.406;2023-05-07T01:21:00;7.50;;;6.82;;
2658;SDS011;1339;53.304;10.406;2023-05-07T01:23:29;7.85;;;7.15;;
2658;SDS011;1339;53.304;10.406;2023-05-07T01:25:57;8.13;;;7.45;;
2658;SDS011;1339;53.304;10.406;2023-05-07T01:28:24;8.65;;;7.93;;
2658;SDS011;1339;53.304;10.406;2023-05-07T01:30:53;7.47;;;6.88;;
2658;SDS011;1339;53.304;10.406;2023-05-07T01:33:21;10.20;;;8.70;;
2658;SDS011;1339;53.304;10.406;2023-05-07T01:35:50;9.23;;;8.43;;
2658;SDS011;1339;53.304;10.406;2023-05-07T01:38:18;8.30;;;7.60;;
2658;SDS011;1339;53.304;10.406;2023-05-07T01:40:46;9.60;;;8.43;;
2658;SDS011;1339;53.304;10.406;2023-05-07T01:43:13;9.10;;;8.30;;
2658;SDS011;1339;53.304;10.406;2023-05-07T01:45:40;9.45;;;8.55;;
2658;SDS011;1339;53.304;10.406;2023-05-07T01:48:09;10.90;;;9.75;;
2658;SDS011;1339;53.304;10.406;2023-05-07T01:50:36;10.40;;;9.43;;
2658;SDS011;1339;53.304;10.406;2023-05-07T01:53:03;9.32;;;8.40;;
2658;SDS011;1339;53.304;10.406;2023-05-07T01:55:30;9.00;;;8.10;;
2658;SDS011;1339;53.304;10.406;2023-05-07T01:57:59;11.13;;;10.02;;
2658;SDS011;1339;53.304;10.406;2023-05-07T02:00:26;9.70;;;8.90;;
2658;SDS011;1339;53.304;10.406;2023-05-07T02:02:53;10.60;;;9.70;;
2658;SDS011;1339;53.304;10.406;2023-05-07T02:05:21;17.45;;;10.50;;
2658;SDS011;1339;53.304;10.406;2023-05-07T02:07:48;10.55;;;9.55;;
2658;SDS011;1339;53.304;10.406;2023-05-07T02:10:15;9.82;;;8.88;;
2658;SDS011;1339;53.304;10.406;2023-05-07T02:12:42;10.88;;;9.77;;
2658;SDS011;1339;53.304;10.406;2023-05-07T02:15:11;9.38;;;8.52;;
2658;SDS011;1339;53.304;10.406;2023-05-07T02:17:39;10.82;;;9.90;;
2658;SDS011;1339;53.304;10.406;2023-05-07T02:20:07;10.45;;;9.30;;
2658;SDS011;1339;53.304;10.406;2023-05-07T02:22:38;11.65;;;10.55;;
2658;SDS011;1339;53.304;10.406;2023-05-07T02:25:05;11.63;;;9.70;;
2658;SDS011;1339;53.304;10.406;2023-05-07T02:27:32;10.30;;;9.30;;
2658;SDS011;1339;53.304;10.406;2023-05-07T02:29:59;10.38;;;9.45;;
2658;SDS011;1339;53.304;10.406;2023-05-07T02:32:27;11.05;;;10.05;;
2658;SDS011;1339;53.304;10.406;2023-05-07T02:34:54;11.38;;;10.27;;
2658;SDS011;1339;53.304;10.406;2023-05-07T02:37:21;11.55;;;10.45;;
2658;SDS011;1339;53.304;10.406;2023-05-07T02:39:48;10.32;;;9.30;;
2658;SDS011;1339;53.304;10.406;2023-05-07T02:42:15;11.38;;;10.20;;
2658;SDS011;1339;53.304;10.406;2023-05-07T02:44:42;9.07;;;8.18;;
2658;SDS011;1339;53.304;10.406;2023-05-07T02:47:09;10.65;;;9.65;;
2658;SDS011;1339;53.304;10.406;2023-05-07T02:49:39;9.93;;;9.00;;
2658;SDS011;1339;53.304;10.406;2023-05-07T02:52:06;10.70;;;9.73;;
2658;SDS011;1339;53.304;10.406;2023-05-07T02:54:33;10.85;;;9.73;;
2658;SDS011;1339;53.304;10.406;2023-05-07T02:57:00;10.82;;;9.82;;
2658;SDS011;1339;53.304;10.406;2023-05-07T02:59:28;9.20;;;8.32;;
2658;SDS011;1339;53.304;10.406;2023-05-07T03:01:55;11.60;;;10.50;;
2658;SDS011;1339;53.304;10.406;2023-05-07T03:04:22;11.00;;;9.80;;
2658;SDS011;1339;53.304;10.406;2023-05-07T03:06:50;11.00;;;10.13;;
2658;SDS011;1339;53.304;10.406;2023-05-07T03:09:17;10.50;;;9.40;;
2658;SDS011;1339;53.304;10.406;2023-05-07T03:11:44;9.85;;;9.05;;
2658;SDS011;1339;53.304;10.406;2023-05-07T03:14:11;10.00;;;9.10;;
2658;SDS011;1339;53.304;10.406;2023-05-07T03:16:38;10.43;;;9.43;;
2658;SDS011;1339;53.304;10.406;2023-05-07T03:19:05;10.00;;;9.10;;
2658;SDS011;1339;53.304;10.406;2023-05-07T03:21:32;9.75;;;8.85;;
2658;SDS011;1339;53.304;10.406;2023-05-07T03:24:00;10.73;;;9.73;;
2658;SDS011;1339;53.304;10.406;2023-05-07T03:26:27;11.13;;;10.05;;
2658;SDS011;1339;53.304;10.406;2023-05-07T03:28:54;10.60;;;9.57;;
2658;SDS011;1339;53.304;10.406;2023-05-07T03:31:21;9.52;;;8.60;;
2658;SDS011;1339;53.304;10.406;2023-05-07T03:33:51;10.27;;;9.15;;
2658;SDS011;1339;53.304;10.406;2023-05-07T03:36:19;10.45;;;9.45;;
2658;SDS011;1339;53.304;10.406;2023-05-07T03:38:46;10.05;;;9.10;;
2658;SDS011;1339;53.304;10.406;2023-05-07T03:41:14;9.82;;;8.93;;
2658;SDS011;1339;53.304;10.406;2023-05-07T03:43:41;8.43;;;7.57;;
2658;SDS011;1339;53.304;10.406;2023-05-07T03:46:08;9.05;;;8.27;;
2658;SDS011;1339;53.304;10.406;2023-05-07T03:48:35;9.35;;;8.45;;
2658;SDS011;1339;53.304;10.406;2023-05-07T03:51:03;10.75;;;9.50;;
2658;SDS011;1339;53.304;10.406;2023-05-07T03:53:30;11.38;;;10.38;;
2658;SDS011;1339;53.304;10.406;2023-05-07T03:55:56;11.15;;;9.95;;
2658;SDS011;1339;53.304;10.406;2023-05-07T03:58:25;10.02;;;9.02;;
2658;SDS011;1339;53.304;10.406;2023-05-07T04:00:52;9.63;;;8.75;;
2658;SDS011;1339;53.304;10.406;2023-05-07T04:03:19;10.35;;;9.45;;
2658;SDS011;1339;53.304;10.406;2023-05-07T04:05:46;12.20;;;11.00;;
2658;SDS011;1339;53.304;10.406;2023-05-07T04:08:24;11.15;;;10.15;;
2658;SDS011;1339;53.304;10.406;2023-05-07T04:10:54;10.45;;;9.30;;
2658;SDS011;1339;53.304;10.406;2023-05-07T04:13:21;10.35;;;9.35;;
2658;SDS011;1339;53.304;10.406;2023-05-07T04:15:49;10.05;;;9.07;;
2658;SDS011;1339;53.304;10.406;2023-05-07T04:18:16;10.55;;;9.55;;
2658;SDS011;1339;53.304;10.406;2023-05-07T04:20:43;9.98;;;9.10;;
2658;SDS011;1339;53.304;10.406;2023-05-07T04:23:10;11.13;;;10.07;;
2658;SDS011;1339;53.304;10.406;2023-05-07T04:25:37;11.68;;;10.45;;
2658;SDS011;1339;53.304;10.406;2023-05-07T04:28:04;11.75;;;9.98;;
2658;SDS011;1339;53.304;10.406;2023-05-07T04:30:31;10.30;;;8.80;;
2658;SDS011;1339;53.304;10.406;2023-05-07T04:32:59;11.63;;;10.07;;
2658;SDS011;1339;53.304;10.406;2023-05-07T04:35:26;11.65;;;10.43;;
2658;SDS011;1339;53.304;10.406;2023-05-07T04:37:53;11.65;;;10.45;;
2658;SDS011;1339;53.304;10.406;2023-05-07T04:40:20;11.82;;;10.15;;
2658;SDS011;1339;53.304;10.406;2023-05-07T04:42:47;11.02;;;9.88;;
2658;SDS011;1339;53.304;10.406;2023-05-07T04:45:14;13.63;;;11.23;;
2658;SDS011;1339;53.304;10.406;2023-05-07T04:47:41;11.05;;;9.82;;
2658;SDS011;1339;53.304;10.406;2023-05-07T04:50:10;10.20;;;8.90;;
2658;SDS011;1339;53.304;10.406;2023-05-07T04:52:37;10.95;;;9.85;;
2658;SDS011;1339;53.304;10.406;2023-05-07T04:55:04;11.82;;;10.30;;
2658;SDS011;1339;53.304;10.406;2023-05-07T04:57:31;12.35;;;11.18;;
2658;SDS011;1339;53.304;10.406;2023-05-07T04:59:58;13.15;;;9.85;;
2658;SDS011;1339;53.304;10.406;2023-05-07T05:02:25;10.60;;;9.60;;
2658;SDS011;1339;53.304;10.406;2023-05-07T05:04:52;11.00;;;9.88;;
2658;SDS011;1339;53.304;10.406;2023-05-07T05:07:20;11.63;;;10.52;;
2658;SDS011;1339;53.304;10.406;2023-05-07T05:09:47;15.65;;;10.38;;
2658;SDS011;1339;53.304;10.406;2023-05-07T05:12:14;10.88;;;9.88;;
2658;SDS011;1339;53.304;10.406;2023-05-07T05:14:41;9.95;;;8.88;;
2658;SDS011;1339;53.304;10.406;2023-05-07T05:17:08;10.38;;;9.38;;
2658;SDS011;1339;53.304;10.406;2023-05-07T05:19:35;10.55;;;9.55;;
2658;SDS011;1339;53.304;10.406;2023-05-07T05:22:02;10.88;;;9.85;;
2658;SDS011;1339;53.304;10.406;2023-05-07T05:24:31;10.82;;;9.75;;
2658;SDS011;1339;53.304;10.406;2023-05-07T05:26:58;11.70;;;10.60;;
2658;SDS011;1339;53.304;10.406;2023-05-07T05:29:26;11.50;;;9.20;;
2658;SDS011;1339;53.304;10.406;2023-05-07T05:31:54;10.80;;;9.80;;
2658;SDS011;1339;53.304;10.406;2023-05-07T05:34:21;11.68;;;10.57;;
2658;SDS011;1339;53.304;10.406;2023-05-07T05:36:48;13.52;;;10.68;;
2658;SDS011;1339;53.304;10.406;2023-05-07T05:39:15;11.02;;;9.93;;
2658;SDS011;1339;53.304;10.406;2023-05-07T05:41:43;11.73;;;10.13;;
2658;SDS011;1339;53.304;10.406;2023-05-07T05:44:10;15.07;;;10.82;;
2658;SDS011;1339;53.304;10.406;2023-05-07T05:46:37;10.43;;;9.43;;
2658;SDS011;1339;53.304;10.406;2023-05-07T05:49:04;10.32;;;9.32;;
2658;SDS011;1339;53.304;10.406;2023-05-07T05:51:31;10.23;;;9.15;;
2658;SDS011;1339;53.304;10.406;2023-05-07T05:53:58;11.43;;;10.23;;
2658;SDS011;1339;53.304;10.406;2023-05-07T05:56:25;10.00;;;9.00;;
2658;SDS011;1339;53.304;10.406;2023-05-07T05:58:54;8.65;;;7.60;;
2658;SDS011;1339;53.304;10.406;2023-05-07T06:01:21;8.98;;;8.07;;
2658;SDS011;1339;53.304;10.406;2023-05-07T06:03:48;9.55;;;8.55;;
2658;SDS011;1339;53.304;10.406;2023-05-07T06:06:15;9.95;;;8.60;;
2658;SDS011;1339;53.304;10.406;2023-05-07T06:08:42;10.45;;;8.05;;
2658;SDS011;1339;53.304;10.406;2023-05-07T06:11:08;9.27;;;8.35;;
2658;SDS011;1339;53.304;10.406;2023-05-07T06:13:35;9.20;;;8.30;;
2658;SDS011;1339;53.304;10.406;2023-05-07T06:16:04;9.00;;;8.13;;
2658;SDS011;1339;53.304;10.406;2023-05-07T06:18:31;8.80;;;8.00;;
2658;SDS011;1339;53.304;10.406;2023-05-07T06:21:01;9.48;;;8.57;;
2658;SDS011;1339;53.304;10.406;2023-05-07T06:23:27;9.35;;;8.43;;
2658;SDS011;1339;53.304;10.406;2023-05-07T06:25:55;9.32;;;8.52;;
2658;SDS011;1339;53.304;10.406;2023-05-07T06:28:21;7.57;;;6.90;;
2658;SDS011;1339;53.304;10.406;2023-05-07T06:30:49;10.43;;;8.90;;
2658;SDS011;1339;53.304;10.406;2023-05-07T06:33:17;9.13;;;8.23;;
2658;SDS011;1339;53.304;10.406;2023-05-07T06:35:44;8.48;;;7.65;;
2658;SDS011;1339;53.304;10.406;2023-05-07T06:38:11;10.95;;;7.82;;
2658;SDS011;1339;53.304;10.406;2023-05-07T06:40:38;8.23;;;7.32;;
2658;SDS011;1339;53.304;10.406;2023-05-07T06:43:05;7.53;;;6.93;;
2658;SDS011;1339;53.304;10.406;2023-05-07T06:45:32;8.23;;;7.38;;
2658;SDS011;1339;53.304;10.406;2023-05-07T06:47:59;8.50;;;7.65;;
2658;SDS011;1339;53.304;10.406;2023-05-07T06:50:27;7.53;;;6.82;;
2658;SDS011;1339;53.304;10.406;2023-05-07T06:52:54;7.55;;;6.60;;
2658;SDS011;1339;53.304;10.406;2023-05-07T06:55:21;8.07;;;7.38;;
2658;SDS011;1339;53.304;10.406;2023-05-07T06:57:48;7.55;;;6.85;;
2658;SDS011;1339;53.304;10.406;2023-05-07T07:00:15;7.55;;;6.95;;
2658;SDS011;1339;53.304;10.406;2023-05-07T07:02:42;7.80;;;7.00;;
2658;SDS011;1339;53.304;10.406;2023-05-07T07:05:09;7.20;;;6.50;;
2658;SDS011;1339;53.304;10.406;2023-05-07T07:07:38;8.75;;;7.85;;
2658;SDS011;1339;53.304;10.406;2023-05-07T07:10:05;11.02;;;9.68;;
2658;SDS011;1339;53.304;10.406;2023-05-07T07:12:32;9.65;;;8.80;;
2658;SDS011;1339;53.304;10.406;2023-05-07T07:14:59;10.00;;;8.95;;
2658;SDS011;1339;53.304;10.406;2023-05-07T07:17:27;8.85;;;7.95;;
2658;SDS011;1339;53.304;10.406;2023-05-07T07:19:54;8.52;;;7.72;;
2658;SDS011;1339;53.304;10.406;2023-05-07T07:22:21;8.85;;;8.05;;
2658;SDS011;1339;53.304;10.406;2023-05-07T07:24:49;8.23;;;7.43;;
2658;SDS011;1339;53.304;10.406;2023-05-07T07:27:17;9.43;;;7.72;;
2658;SDS011;1339;53.304;10.406;2023-05-07T07:29:44;7.82;;;7.13;;
2658;SDS011;1339;53.304;10.406;2023-05-07T07:32:11;9.82;;;8.93;;
2658;SDS011;1339;53.304;10.406;2023-05-07T07:34:38;10.13;;;7.45;;
2658;SDS011;1339;53.304;10.406;2023-05-07T07:37:05;7.97;;;7.38;;
2658;SDS011;1339;53.304;10.406;2023-05-07T07:39:32;7.57;;;6.82;;
2658;SDS011;1339;53.304;10.406;2023-05-07T07:42:00;6.53;;;5.93;;
2658;SDS011;1339;53.304;10.406;2023-05-07T07:44:27;7.60;;;6.90;;
2658;SDS011;1339;53.304;10.406;2023-05-07T07:46:54;7.97;;;7.28;;
2658;SDS011;1339;53.304;10.406;2023-05-07T07:49:21;8.05;;;7.35;;
2658;SDS011;1339;53.304;10.406;2023-05-07T07:51:48;7.72;;;7.03;;
2658;SDS011;1339;53.304;10.406;2023-05-07T07:54:16;7.82;;;7.13;;
2658;SDS011;1339;53.304;10.406;2023-05-07T07:56:43;7.30;;;6.60;;
2658;SDS011;1339;53.304;10.406;2023-05-07T07:59:11;8.73;;;7.95;;
2658;SDS011;1339;53.304;10.406;2023-05-07T08:01:38;8.45;;;7.57;;
2658;SDS011;1339;53.304;10.406;2023-05-07T08:04:05;7.60;;;6.93;;
2658;SDS011;1339;53.304;10.406;2023-05-07T08:06:32;8.48;;;7.68;;
2658;SDS011;1339;53.304;10.406;2023-05-07T08:08:59;8.23;;;7.43;;
2658;SDS011;1339;53.304;10.406;2023-05-07T08:11:27;9.80;;;9.00;;
2658;SDS011;1339;53.304;10.406;2023-05-07T08:13:54;8.52;;;7.82;;
2658;SDS011;1339;53.304;10.406;2023-05-07T08:16:22;8.13;;;7.43;;
2658;SDS011;1339;53.304;10.406;2023-05-07T08:18:49;9.27;;;8.43;;
2658;SDS011;1339;53.304;10.406;2023-05-07T08:21:16;9.50;;;8.60;;
2658;SDS011;1339;53.304;10.406;2023-05-07T08:23:43;7.88;;;6.93;;
2658;SDS011;1339;53.304;10.406;2023-05-07T08:26:11;9.63;;;8.43;;
2658;SDS011;1339;53.304;10.406;2023-05-07T08:28:38;7.80;;;7.10;;
2658;SDS011;1339;53.304;10.406;2023-05-07T08:31:05;7.80;;;7.10;;
2658;SDS011;1339;53.304;10.406;2023-05-07T08:33:33;10.65;;;8.35;;
2658;SDS011;1339;53.304;10.406;2023-05-07T08:36:00;8.15;;;7.40;;
2658;SDS011;1339;53.304;10.406;2023-05-07T08:38:27;8.52;;;7.72;;
2658;SDS011;1339;53.304;10.406;2023-05-07T08:40:54;6.95;;;6.45;;
2658;SDS011;1339;53.304;10.406;2023-05-07T08:43:21;8.55;;;7.85;;
2658;SDS011;1339;53.304;10.406;2023-05-07T08:45:50;9.48;;;8.68;;
2658;SDS011;1339;53.304;10.406;2023-05-07T08:48:20;10.02;;;9.13;;
2658;SDS011;1339;53.304;10.406;2023-05-07T08:50:49;9.02;;;8.20;;
2658;SDS011;1339;53.304;10.406;2023-05-07T08:53:17;8.27;;;7.57;;
2658;SDS011;1339;53.304;10.406;2023-05-07T08:55:44;7.95;;;7.20;;
2658;SDS011;1339;53.304;10.406;2023-05-07T08:58:11;9.50;;;8.55;;
2658;SDS011;1339;53.304;10.406;2023-05-07T09:00:38;7.88;;;7.28;;
2658;SDS011;1339;53.304;10.406;2023-05-07T09:03:06;8.40;;;7.70;;
2658;SDS011;1339;53.304;10.406;2023-05-07T09:05:33;8.75;;;7.95;;
2658;SDS011;1339;53.304;10.406;2023-05-07T09:08:02;8.20;;;7.40;;
2658;SDS011;1339;53.304;10.406;2023-05-07T09:10:29;9.70;;;8.80;;
2658;SDS011;1339;53.304;10.406;2023-05-07T09:12:59;8.18;;;7.47;;
2658;SDS011;1339;53.304;10.406;2023-05-07T09:15:26;8.88;;;8.07;;
2658;SDS011;1339;53.304;10.406;2023-05-07T09:17:53;8.70;;;7.90;;
2658;SDS011;1339;53.304;10.406;2023-05-07T09:20:20;8.77;;;8.00;;
2658;SDS011;1339;53.304;10.406;2023-05-07T09:22:47;8.73;;;7.82;;
2658;SDS011;1339;53.304;10.406;2023-05-07T09:25:18;7.90;;;7.10;;
2658;SDS011;1339;53.304;10.406;2023-05-07T09:27:54;7.00;;;6.45;;
2658;SDS011;1339;53.304;10.406;2023-05-07T09:30:21;8.07;;;7.35;;
2658;SDS011;1339;53.304;10.406;2023-05-07T09:32:48;6.97;;;6.03;;
2658;SDS011;1339;53.304;10.406;2023-05-07T09:35:14;8.63;;;7.50;;
2658;SDS011;1339;53.304;10.406;2023-05-07T09:37:42;8.85;;;7.38;;
2658;SDS011;1339;53.304;10.406;2023-05-07T09:40:10;8.63;;;7.95;;
2658;SDS011;1339;53.304;10.406;2023-05-07T09:42:48;7.60;;;6.93;;
2658;SDS011;1339;53.304;10.406;2023-05-07T09:45:15;7.95;;;7.15;;
2658;SDS011;1339;53.304;10.406;2023-05-07T09:47:42;7.13;;;6.43;;
2658;SDS011;1339;53.304;10.406;2023-05-07T09:50:10;7.53;;;6.70;;
2658;SDS011;1339;53.304;10.406;2023-05-07T09:52:38;7.40;;;6.70;;
2658;SDS011;1339;53.304;10.406;2023-05-07T09:55:06;7.70;;;7.00;;
2658;SDS011;1339;53.304;10.406;2023-05-07T09:57:34;8.77;;;7.88;;
2658;SDS011;1339;53.304;10.406;2023-05-07T10:00:02;7.00;;;6.40;;
2658;SDS011;1339;53.304;10.406;2023-05-07T10:02:30;9.25;;;7.65;;
2658;SDS011;1339;53.304;10.406;2023-05-07T10:04:57;6.95;;;6.32;;
2658;SDS011;1339;53.304;10.406;2023-05-07T10:07:25;7.63;;;6.95;;
2658;SDS011;1339;53.304;10.406;2023-05-07T10:09:52;7.53;;;6.75;;
2658;SDS011;1339;53.304;10.406;2023-05-07T10:12:20;8.02;;;7.28;;
2658;SDS011;1339;53.304;10.406;2023-05-07T10:14:47;6.90;;;6.35;;
2658;SDS011;1339;53.304;10.406;2023-05-07T10:17:17;8.00;;;7.20;;
2658;SDS011;1339;53.304;10.406;2023-05-07T10:19:44;7.53;;;6.93;;
2658;SDS011;1339;53.304;10.406;2023-05-07T10:22:11;7.20;;;6.60;;
2658;SDS011;1339;53.304;10.406;2023-05-07T10:24:39;8.63;;;7.82;;
2658;SDS011;1339;53.304;10.406;2023-05-07T10:27:07;7.70;;;7.00;;
2658;SDS011;1339;53.304;10.406;2023-05-07T10:29:38;8.05;;;7.35;;
2658;SDS011;1339;53.304;10.406;2023-05-07T10:32:14;7.95;;;7.30;;
2658;SDS011;1339;53.304;10.406;2023-05-07T10:34:47;7.13;;;6.50;;
2658;SDS011;1339;53.304;10.406;2023-05-07T10:37:15;7.82;;;7.10;;
2658;SDS011;1339;53.304;10.406;2023-05-07T10:39:42;7.07;;;6.47;;
2658;SDS011;1339;53.304;10.406;2023-05-07T10:42:09;7.70;;;7.10;;
2658;SDS011;1339;53.304;10.406;2023-05-07T10:44:36;6.82;;;6.15;;
2658;SDS011;1339;53.304;10.406;2023-05-07T10:47:04;6.00;;;5.57;;
2658;SDS011;1339;53.304;10.406;2023-05-07T10:49:33;7.30;;;6.53;;
2658;SDS011;1339;53.304;10.406;2023-05-07T10:52:15;7.05;;;6.55;;
2658;SDS011;1339;53.304;10.406;2023-05-07T10:54:42;8.45;;;6.60;;
2658;SDS011;1339;53.304;10.406;2023-05-07T10:59:54;9.75;;;6.55;;
2658;SDS011;1339;53.304;10.406;2023-05-07T11:02:21;7.00;;;6.40;;
2658;SDS011;1339;53.304;10.406;2023-05-07T11:07:31;6.70;;;6.10;;
2658;SDS011;1339;53.304;10.406;2023-05-07T11:10:00;6.30;;;5.80;;
2658;SDS011;1339;53.304;10.406;2023-05-07T11:15:15;6.00;;;5.50;;
2658;SDS011;1339;53.304;10.406;2023-05-07T11:17:54;6.00;;;5.40;;
2658;SDS011;1339;53.304;10.406;2023-05-07T11:20:22;6.53;;;5.93;;
2658;SDS011;1339;53.304;10.406;2023-05-07T11:23:12;6.00;;;5.43;;
2658;SDS011;1339;53.304;10.406;2023-05-07T11:25:58;5.90;;;5.40;;
2658;SDS011;1339;53.304;10.406;2023-05-07T11:28:26;5.73;;;5.23;;
2658;SDS011;1339;53.304;10.406;2023-05-07T11:30:54;5.77;;;5.27;;
2658;SDS011;1339;53.304;10.406;2023-05-07T11:33:21;5.90;;;5.50;;
2658;SDS011;1339;53.304;10.406;2023-05-07T11:35:50;4.83;;;4.53;;
2658;SDS011;1339;53.304;10.406;2023-05-07T11:38:19;5.80;;;5.23;;
2658;SDS011;1339;53.304;10.406;2023-05-07T11:40:49;4.60;;;4.20;;
2658;SDS011;1339;53.304;10.406;2023-05-07T11:43:16;4.70;;;4.30;;
2658;SDS011;1339;53.304;10.406;2023-05-07T11:45:44;5.03;;;4.73;;
2658;SDS011;1339;53.304;10.406;2023-05-07T11:48:11;5.43;;;4.87;;
2658;SDS011;1339;53.304;10.406;2023-05-07T11:50:49;5.83;;;5.40;;
2658;SDS011;1339;53.304;10.406;2023-05-07T11:53:16;4.90;;;4.53;;
2658;SDS011;1339;53.304;10.406;2023-05-07T11:55:46;5.10;;;4.70;;
2658;SDS011;1339;53.304;10.406;2023-05-07T11:58:15;5.50;;;5.00;;
2658;SDS011;1339;53.304;10.406;2023-05-07T12:00:49;6.20;;;4.17;;
2658;SDS011;1339;53.304;10.406;2023-05-07T12:03:16;3.73;;;3.53;;
2658;SDS011;1339;53.304;10.406;2023-05-07T12:05:43;5.03;;;4.63;;
2658;SDS011;1339;53.304;10.406;2023-05-07T12:08:13;5.30;;;3.80;;
2658;SDS011;1339;53.304;10.406;2023-05-07T12:10:40;4.87;;;4.50;;
2658;SDS011;1339;53.304;10.406;2023-05-07T12:13:15;4.20;;;3.90;;
2658;SDS011;1339;53.304;10.406;2023-05-07T12:15:42;3.60;;;3.40;;
2658;SDS011;1339;53.304;10.406;2023-05-07T12:18:09;4.17;;;3.40;;
2658;SDS011;1339;53.304;10.406;2023-05-07T12:20:36;3.77;;;3.47;;
2658;SDS011;1339;53.304;10.406;2023-05-07T12:23:03;3.87;;;3.57;;
2658;SDS011;1339;53.304;10.406;2023-05-07T12:25:30;3.67;;;3.47;;
2658;SDS011;1339;53.304;10.406;2023-05-07T12:27:59;3.57;;;3.33;;
2658;SDS011;1339;53.304;10.406;2023-05-07T12:30:28;3.80;;;3.50;;
2658;SDS011;1339;53.304;10.406;2023-05-07T12:32:55;5.60;;;3.77;;
2658;SDS011;1339;53.304;10.406;2023-05-07T12:35:28;4.03;;;3.70;;
2658;SDS011;1339;53.304;10.406;2023-05-07T12:37:55;3.40;;;3.20;;
2658;SDS011;1339;53.304;10.406;2023-05-07T12:40:24;4.17;;;3.87;;
2658;SDS011;1339;53.304;10.406;2023-05-07T12:42:52;4.07;;;3.60;;
2658;SDS011;1339;53.304;10.406;2023-05-07T12:45:20;3.77;;;3.50;;
2658;SDS011;1339;53.304;10.406;2023-05-07T12:47:48;3.40;;;3.20;;
2658;SDS011;1339;53.304;10.406;2023-05-07T12:50:16;3.60;;;3.30;;
2658;SDS011;1339;53.304;10.406;2023-05-07T12:52:43;3.77;;;3.47;;
2658;SDS011;1339;53.304;10.406;2023-05-07T12:55:12;3.90;;;3.60;;
2658;SDS011;1339;53.304;10.406;2023-05-07T12:57:39;4.10;;;3.67;;
2658;SDS011;1339;53.304;10.406;2023-05-07T13:00:06;5.03;;;3.27;;
2658;SDS011;1339;53.304;10.406;2023-05-07T13:02:34;3.73;;;3.43;;
2658;SDS011;1339;53.304;10.406;2023-05-07T13:05:02;3.20;;;2.90;;
2658;SDS011;1339;53.304;10.406;2023-05-07T13:07:29;3.40;;;3.10;;
2658;SDS011;1339;53.304;10.406;2023-05-07T13:09:56;4.30;;;3.93;;
2658;SDS011;1339;53.304;10.406;2023-05-07T13:12:23;3.30;;;2.90;;
2658;SDS011;1339;53.304;10.406;2023-05-07T13:14:50;3.13;;;2.90;;
2658;SDS011;1339;53.304;10.406;2023-05-07T13:17:17;2.70;;;2.50;;
2658;SDS011;1339;53.304;10.406;2023-05-07T13:19:44;2.90;;;2.70;;
2658;SDS011;1339;53.304;10.406;2023-05-07T13:22:13;2.53;;;2.37;;
2658;SDS011;1339;53.304;10.406;2023-05-07T13:24:40;3.50;;;3.20;;
2658;SDS011;1339;53.304;10.406;2023-05-07T13:27:08;2.50;;;2.30;;
2658;SDS011;1339;53.304;10.406;2023-05-07T13:29:35;2.60;;;2.40;;
2658;SDS011;1339;53.304;10.406;2023-05-07T13:32:02;2.60;;;2.40;;
2658;SDS011;1339;53.304;10.406;2023-05-07T13:34:29;2.47;;;2.27;;
2658;SDS011;1339;53.304;10.406;2023-05-07T13:36:56;2.80;;;2.60;;
2658;SDS011;1339;53.304;10.406;2023-05-07T13:39:24;2.77;;;2.57;;
2658;SDS011;1339;53.304;10.406;2023-05-07T13:41:51;2.50;;;2.13;;
2658;SDS011;1339;53.304;10.406;2023-05-07T13:44:18;2.03;;;1.83;;
2658;SDS011;1339;53.304;10.406;2023-05-07T13:46:45;3.07;;;2.47;;
2658;SDS011;1339;53.304;10.406;2023-05-07T13:49:12;2.83;;;2.63;;
2658;SDS011;1339;53.304;10.406;2023-05-07T13:51:39;2.37;;;2.27;;
2658;SDS011;1339;53.304;10.406;2023-05-07T13:54:06;2.60;;;2.37;;
2658;SDS011;1339;53.304;10.406;2023-05-07T13:56:35;2.67;;;2.47;;
2658;SDS011;1339;53.304;10.406;2023-05-07T13:59:01;2.53;;;2.33;;
2658;SDS011;1339;53.304;10.406;2023-05-07T14:01:28;3.83;;;2.60;;
2658;SDS011;1339;53.304;10.406;2023-05-07T14:03:56;2.83;;;2.63;;
2658;SDS011;1339;53.304;10.406;2023-05-07T14:06:25;3.20;;;2.87;;
2658;SDS011;1339;53.304;10.406;2023-05-07T14:08:52;3.10;;;2.90;;
2658;SDS011;1339;53.304;10.406;2023-05-07T14:11:19;2.97;;;2.67;;
2658;SDS011;1339;53.304;10.406;2023-05-07T14:13:48;2.20;;;2.10;;
2658;SDS011;1339;53.304;10.406;2023-05-07T14:16:15;3.03;;;2.80;;
2658;SDS011;1339;53.304;10.406;2023-05-07T14:18:42;2.70;;;2.03;;
2658;SDS011;1339;53.304;10.406;2023-05-07T14:21:09;3.20;;;2.13;;
2658;SDS011;1339;53.304;10.406;2023-05-07T14:23:36;2.77;;;2.20;;
2658;SDS011;1339;53.304;10.406;2023-05-07T14:26:03;2.37;;;2.17;;
2658;SDS011;1339;53.304;10.406;2023-05-07T14:28:30;2.80;;;2.47;;
2658;SDS011;1339;53.304;10.406;2023-05-07T14:30:59;3.30;;;2.67;;
2658;SDS011;1339;53.304;10.406;2023-05-07T14:33:26;3.60;;;2.37;;
2658;SDS011;1339;53.304;10.406;2023-05-07T14:35:52;2.60;;;2.40;;
2658;SDS011;1339;53.304;10.406;2023-05-07T14:38:19;3.37;;;2.00;;
2658;SDS011;1339;53.304;10.406;2023-05-07T14:40:47;2.07;;;1.87;;
2658;SDS011;1339;53.304;10.406;2023-05-07T14:43:14;2.60;;;2.33;;
2658;SDS011;1339;53.304;10.406;2023-05-07T14:45:41;2.30;;;2.10;;
2658;SDS011;1339;53.304;10.406;2023-05-07T14:48:09;3.60;;;2.30;;
2658;SDS011;1339;53.304;10.406;2023-05-07T14:50:39;2.57;;;2.37;;
2658;SDS011;1339;53.304;10.406;2023-05-07T14:53:06;2.73;;;2.53;;
2658;SDS011;1339;53.304;10.406;2023-05-07T14:55:34;3.00;;;2.70;;
2658;SDS011;1339;53.304;10.406;2023-05-07T14:58:01;2.77;;;2.57;;
2658;SDS011;1339;53.304;10.406;2023-05-07T15:00:28;4.33;;;2.40;;
2658;SDS011;1339;53.304;10.406;2023-05-07T15:02:55;2.33;;;2.13;;
2658;SDS011;1339;53.304;10.406;2023-05-07T15:05:25;2.73;;;2.43;;
2658;SDS011;1339;53.304;10.406;2023-05-07T15:07:52;2.57;;;2.27;;